createdAt,value
2023-05-19T00:00:14.474Z,97.27
2023-05-19T00:01:14.306Z,97.38
2023-05-19T00:02:14.571Z,97.48
2023-05-19T00:03:14.561Z,97.48
2023-05-19T00:04:14.413Z,97.58
2023-05-19T00:05:14.616Z,97.58
2023-05-19T00:06:14.485Z,97.58
2023-05-19T00:07:14.313Z,97.68
2023-05-19T00:08:14.639Z,97.68
2023-05-19T00:09:14.243Z,97.78
2023-05-19T00:10:14.256Z,97.78
2023-05-19T00:11:14.262Z,97.89
2023-05-19T00:12:14.805Z,97.89
2023-05-19T00:13:14.233Z,97.94
2023-05-19T00:14:14.476Z,97.94
2023-05-19T00:15:16.156Z,97.83
2023-05-19T00:16:14.540Z,97.83
2023-05-19T00:17:14.286Z,97.94
2023-05-19T00:18:14.445Z,97.94
2023-05-19T00:19:14.463Z,98.03
2023-05-19T00:20:14.193Z,98.03
2023-05-19T00:21:14.216Z,98.14
2023-05-19T00:22:14.232Z,98.03
2023-05-19T00:23:14.248Z,98.03
2023-05-19T00:24:14.231Z,97.94
2023-05-19T00:25:14.238Z,97.94
2023-05-19T00:26:14.249Z,98.19
2023-05-19T00:27:14.376Z,98.19
2023-05-19T00:28:14.161Z,98.39
2023-05-19T00:29:14.114Z,98.50
2023-05-19T00:30:14.490Z,98.80
2023-05-19T00:31:14.097Z,98.70
2023-05-19T00:32:14.179Z,98.80
2023-05-19T00:33:14.093Z,98.97
2023-05-19T00:34:14.093Z,98.86
2023-05-19T00:35:14.100Z,98.66
2023-05-19T00:36:14.077Z,98.55
2023-05-19T00:37:14.053Z,98.45
2023-05-19T00:38:16.046Z,98.35
2023-05-19T00:39:14.109Z,98.35
2023-05-19T00:40:14.041Z,98.45
2023-05-19T00:41:14.041Z,98.70
2023-05-19T00:42:14.026Z,99.22
2023-05-19T00:43:14.034Z,99.43
2023-05-19T00:44:14.041Z,99.43
2023-05-19T00:45:14.086Z,99.43
2023-05-19T00:46:14.322Z,99.32
2023-05-19T00:47:14.019Z,99.01
2023-05-19T00:48:13.999Z,98.39
2023-05-19T00:49:14.008Z,97.88
2023-05-19T00:50:13.991Z,97.77
2023-05-19T00:51:14.016Z,97.67
2023-05-19T00:52:13.963Z,97.88
2023-05-19T00:53:13.965Z,98.19
2023-05-19T00:54:14.140Z,98.60
2023-05-19T00:55:13.938Z,98.29
2023-05-19T00:56:15.897Z,97.98
2023-05-19T00:57:13.923Z,98.19
2023-05-19T00:58:13.945Z,98.29
2023-05-19T00:59:14.272Z,98.80
2023-05-19T01:00:13.919Z,99.01
2023-05-19T01:01:13.943Z,99.22
2023-05-19T01:02:13.909Z,99.43
2023-05-19T01:03:13.978Z,99.63
2023-05-19T01:04:13.884Z,99.22
2023-05-19T01:05:15.816Z,98.54
2023-05-19T01:06:13.860Z,98.44
2023-05-19T01:07:13.892Z,98.65
2023-05-19T01:08:13.863Z,98.85
2023-05-19T01:09:13.860Z,99.06
2023-05-19T01:10:13.844Z,98.96
2023-05-19T01:11:13.823Z,98.75
2023-05-19T01:12:14.291Z,98.54
2023-05-19T01:13:13.827Z,98.65
2023-05-19T01:14:13.815Z,98.44
2023-05-19T01:15:14.289Z,98.33
2023-05-19T01:16:13.950Z,98.44
2023-05-19T01:17:13.817Z,98.54
2023-05-19T01:18:13.814Z,98.49
2023-05-19T01:19:13.970Z,98.85
2023-05-19T01:20:13.819Z,99.37
2023-05-19T01:21:13.844Z,99.41
2023-05-19T01:22:13.772Z,99.26
2023-05-19T01:23:13.770Z,99.16
2023-05-19T01:24:13.754Z,99.41
2023-05-19T01:25:13.968Z,99.47
2023-05-19T01:26:13.769Z,99.68
2023-05-19T01:27:13.713Z,99.47
2023-05-19T01:28:15.690Z,98.79
2023-05-19T01:29:13.705Z,98.69
2023-05-19T01:30:13.728Z,98.79
2023-05-19T01:31:15.666Z,98.79
2023-05-19T01:32:13.727Z,98.69
2023-05-19T01:33:13.690Z,98.69
2023-05-19T01:34:15.651Z,98.69
2023-05-19T01:35:13.685Z,98.84
2023-05-19T01:36:13.668Z,98.94
2023-05-19T01:37:13.665Z,98.94
2023-05-19T01:38:13.663Z,99.05
2023-05-19T01:39:13.649Z,99.15
2023-05-19T01:40:13.692Z,99.25
2023-05-19T01:41:13.620Z,99.46
2023-05-19T01:42:13.632Z,99.56
2023-05-19T01:43:13.613Z,99.87
2023-05-19T01:44:13.688Z,99.99
2023-05-19T01:45:13.794Z,99.99
2023-05-19T01:46:13.645Z,99.99
2023-05-19T01:47:13.800Z,99.99
2023-05-19T01:48:13.743Z,99.99
2023-05-19T01:49:13.615Z,99.98
2023-05-19T01:50:13.584Z,99.77
2023-05-19T01:51:13.559Z,99.66
2023-05-19T01:52:13.585Z,99.71
2023-05-19T01:53:13.554Z,99.71
2023-05-19T01:54:13.557Z,99.82
2023-05-19T01:55:13.532Z,99.92
2023-05-19T01:56:13.540Z,99.92
2023-05-19T01:57:13.569Z,99.92
2023-05-19T01:58:13.679Z,99.99
2023-05-19T01:59:15.508Z,99.99
2023-05-19T02:00:14.103Z,99.99
2023-05-19T02:01:13.629Z,99.99
2023-05-19T02:02:13.520Z,99.99
2023-05-19T02:03:13.613Z,99.99
2023-05-19T02:04:13.559Z,99.99
2023-05-19T02:05:13.496Z,99.99
2023-05-19T02:06:13.738Z,99.99
2023-05-19T02:07:13.526Z,99.99
2023-05-19T02:08:15.431Z,99.99
2023-05-19T02:09:13.857Z,99.99
2023-05-19T02:10:13.454Z,99.99
2023-05-19T02:11:13.461Z,99.99
2023-05-19T02:12:13.489Z,99.99
2023-05-19T02:13:13.490Z,99.99
2023-05-19T02:14:13.488Z,99.99
2023-05-19T02:15:13.494Z,99.99
2023-05-19T02:16:13.583Z,99.99
2023-05-19T02:17:13.612Z,99.99
2023-05-19T02:18:13.620Z,99.99
2023-05-19T02:19:13.450Z,99.99
2023-05-19T02:20:13.525Z,99.99
2023-05-19T02:21:13.440Z,99.99
2023-05-19T02:22:13.443Z,99.99
2023-05-19T02:23:13.432Z,99.99
2023-05-19T02:24:13.357Z,99.99
2023-05-19T02:25:13.667Z,99.99
2023-05-19T02:26:13.367Z,99.99
2023-05-19T02:27:13.386Z,99.99
2023-05-19T02:28:13.696Z,99.99
2023-05-19T02:29:13.578Z,99.99
2023-05-19T02:30:14.771Z,99.99
2023-05-19T02:31:13.610Z,99.99
2023-05-19T02:32:13.416Z,99.99
2023-05-19T02:33:13.532Z,99.99
2023-05-19T02:34:13.280Z,99.99
2023-05-19T02:35:13.526Z,99.99
2023-05-19T02:36:13.296Z,99.99
2023-05-19T02:37:13.449Z,99.99
2023-05-19T02:38:13.753Z,99.99
2023-05-19T02:39:13.449Z,99.99
2023-05-19T02:40:13.259Z,99.99
2023-05-19T02:41:13.381Z,99.99
2023-05-19T02:42:13.270Z,99.99
2023-05-19T02:43:13.228Z,99.99
2023-05-19T02:44:13.683Z,99.99
2023-05-19T02:45:13.297Z,99.99
2023-05-19T02:46:13.213Z,99.99
2023-05-19T02:47:13.607Z,99.99
2023-05-19T02:48:13.976Z,99.99
2023-05-19T02:49:13.522Z,99.99
2023-05-19T02:50:13.238Z,99.99
2023-05-19T02:51:13.179Z,99.99
2023-05-19T02:52:13.157Z,99.99
2023-05-19T02:53:13.166Z,99.99
2023-05-19T02:54:13.460Z,99.99
2023-05-19T02:55:13.264Z,99.99
2023-05-19T02:56:13.217Z,99.99
2023-05-19T02:57:15.087Z,99.99
2023-05-19T02:58:13.281Z,99.99
2023-05-19T02:59:13.311Z,99.99
2023-05-19T03:00:13.119Z,99.99
2023-05-19T03:01:13.115Z,99.99
2023-05-19T03:02:13.166Z,99.99
2023-05-19T03:03:13.616Z,99.99
2023-05-19T03:04:15.065Z,99.99
2023-05-19T03:05:13.120Z,99.99
2023-05-19T03:06:13.059Z,99.99
2023-05-19T03:07:13.058Z,99.99
2023-05-19T03:08:13.344Z,99.99
2023-05-19T03:09:14.515Z,99.99
2023-05-19T03:10:13.670Z,99.99
2023-05-19T03:11:13.271Z,99.99
2023-05-19T03:12:13.273Z,99.99
2023-05-19T03:13:13.584Z,99.99
2023-05-19T03:14:13.180Z,99.99
2023-05-19T03:15:13.190Z,99.99
2023-05-19T03:16:13.129Z,99.99
2023-05-19T03:17:13.188Z,99.99
2023-05-19T03:18:13.058Z,99.99
2023-05-19T03:19:13.121Z,99.99
2023-05-19T03:20:13.064Z,99.99
2023-05-19T03:21:13.029Z,99.99
2023-05-19T03:22:13.146Z,99.99
2023-05-19T03:23:13.051Z,99.99
2023-05-19T03:24:12.950Z,99.99
2023-05-19T03:25:12.970Z,99.99
2023-05-19T03:26:12.981Z,99.99
2023-05-19T03:27:12.980Z,99.99
2023-05-19T03:28:12.983Z,99.99
2023-05-19T03:29:13.100Z,99.99
2023-05-19T03:30:13.107Z,99.99
2023-05-19T03:31:12.919Z,99.99
2023-05-19T03:32:13.312Z,99.99
2023-05-19T03:33:13.176Z,99.99
2023-05-19T03:34:12.923Z,99.99
2023-05-19T03:35:12.882Z,99.99
2023-05-19T03:36:12.933Z,99.99
2023-05-19T03:37:12.958Z,99.99
2023-05-19T03:38:13.253Z,99.99
2023-05-19T03:39:12.854Z,99.99
2023-05-19T03:40:12.873Z,99.99
2023-05-19T03:41:13.168Z,99.99
2023-05-19T03:42:13.399Z,99.99
2023-05-19T03:43:13.088Z,99.99
2023-05-19T03:44:12.816Z,99.99
2023-05-19T03:45:13.406Z,99.99
2023-05-19T03:46:13.080Z,99.99
2023-05-19T03:47:13.011Z,99.99
2023-05-19T03:48:13.144Z,99.99
2023-05-19T03:49:12.925Z,99.99
2023-05-19T03:50:12.793Z,99.99
2023-05-19T03:51:12.753Z,99.99
2023-05-19T03:52:12.772Z,99.99
2023-05-19T03:53:12.755Z,99.99
2023-05-19T03:54:12.769Z,99.99
2023-05-19T03:55:12.772Z,99.99
2023-05-19T03:56:12.779Z,99.99
2023-05-19T03:57:12.782Z,99.99
2023-05-19T03:58:12.796Z,99.99
2023-05-19T03:59:12.797Z,99.99
2023-05-19T04:00:12.723Z,99.99
2023-05-19T04:01:12.710Z,99.99
2023-05-19T04:02:12.760Z,99.99
2023-05-19T04:03:12.887Z,99.99
2023-05-19T04:04:13.093Z,99.99
2023-05-19T04:05:12.742Z,99.99
2023-05-19T04:06:12.681Z,99.99
2023-05-19T04:07:12.848Z,99.99
2023-05-19T04:08:12.746Z,99.99
2023-05-19T04:09:12.758Z,99.99
2023-05-19T04:10:12.911Z,99.99
2023-05-19T04:11:12.675Z,99.99
2023-05-19T04:12:12.675Z,99.99
2023-05-19T04:13:12.685Z,99.99
2023-05-19T04:14:12.690Z,99.99
2023-05-19T04:15:12.618Z,99.99
2023-05-19T04:16:12.982Z,99.99
2023-05-19T04:17:12.617Z,99.99
2023-05-19T04:18:12.865Z,99.99
2023-05-19T04:19:12.856Z,99.99
2023-05-19T04:20:12.628Z,99.99
2023-05-19T04:21:12.648Z,99.99
2023-05-19T04:22:12.562Z,99.99
2023-05-19T04:23:12.756Z,99.99
2023-05-19T04:24:12.660Z,99.99
2023-05-19T04:25:12.662Z,99.99
2023-05-19T04:26:12.884Z,99.99
2023-05-19T04:27:12.573Z,99.99
2023-05-19T04:28:12.586Z,99.99
2023-05-19T04:29:12.898Z,99.99
2023-05-19T04:30:12.514Z,99.99
2023-05-19T04:31:12.524Z,99.99
2023-05-19T04:32:12.816Z,99.99
2023-05-19T04:33:13.192Z,99.99
2023-05-19T04:34:12.723Z,99.99
2023-05-19T04:35:12.632Z,99.99
2023-05-19T04:36:12.552Z,99.99
2023-05-19T04:37:12.552Z,99.99
2023-05-19T04:38:14.411Z,99.88
2023-05-19T04:39:12.567Z,99.78
2023-05-19T04:40:12.574Z,99.68
2023-05-19T04:41:12.456Z,99.68
2023-05-19T04:42:12.704Z,99.68
2023-05-19T04:43:12.484Z,99.57
2023-05-19T04:44:12.488Z,99.57
2023-05-19T04:45:12.824Z,99.43
2023-05-19T04:46:13.708Z,99.11
2023-05-19T04:47:12.432Z,98.76
2023-05-19T04:48:12.434Z,98.55
2023-05-19T04:49:12.612Z,98.55
2023-05-19T04:50:12.406Z,98.55
2023-05-19T04:51:12.646Z,98.35
2023-05-19T04:52:12.358Z,98.24
2023-05-19T04:53:12.360Z,98.10
2023-05-19T04:54:12.359Z,98.10
2023-05-19T04:55:12.336Z,97.99
2023-05-19T04:56:12.347Z,97.68
2023-05-19T04:58:40.590Z,95.58
2023-05-19T04:59:38.381Z,95.27
2023-05-19T05:00:38.289Z,94.85
2023-05-19T05:01:38.477Z,94.55
2023-05-19T05:02:38.409Z,94.30
2023-05-19T05:03:38.399Z,93.37
2023-05-19T05:04:38.500Z,93.06
2023-05-19T05:05:38.508Z,93.27
2023-05-19T05:06:38.244Z,93.64
2023-05-19T05:07:38.534Z,93.12
2023-05-19T05:08:38.529Z,92.71
2023-05-19T05:09:38.302Z,92.82
2023-05-19T05:10:38.192Z,92.71
2023-05-19T05:11:38.325Z,92.46
2023-05-19T05:12:38.325Z,92.25
2023-05-19T05:13:38.319Z,92.05
2023-05-19T05:14:38.581Z,91.70
2023-05-19T05:15:38.296Z,91.60
2023-05-19T05:16:38.227Z,91.39
2023-05-19T05:17:38.277Z,90.67
2023-05-19T05:18:38.253Z,89.54
2023-05-19T05:19:38.165Z,89.09
2023-05-19T05:20:38.330Z,89.19
2023-05-19T05:21:38.131Z,88.98
2023-05-19T05:22:38.153Z,88.53
2023-05-19T05:23:38.263Z,87.92
2023-05-19T05:24:38.136Z,87.82
2023-05-19T05:25:38.159Z,87.71
2023-05-19T05:26:38.096Z,87.88
2023-05-19T05:27:38.249Z,87.98
2023-05-19T05:28:38.300Z,87.05
2023-05-19T05:29:38.082Z,85.93
2023-05-19T05:30:38.237Z,85.82
2023-05-19T05:31:38.218Z,85.99
2023-05-19T05:32:38.132Z,86.40
2023-05-19T05:33:38.483Z,85.89
2023-05-19T05:34:38.157Z,86.05
2023-05-19T05:35:38.036Z,85.95
2023-05-19T05:36:38.449Z,85.85
2023-05-19T05:37:38.093Z,85.33
2023-05-19T05:38:38.017Z,84.82
2023-05-19T05:39:38.027Z,85.03
2023-05-19T05:40:38.035Z,85.30
2023-05-19T05:41:38.026Z,85.19
2023-05-19T05:42:38.029Z,84.06
2023-05-19T05:43:37.979Z,84.17
2023-05-19T05:44:38.220Z,85.15
2023-05-19T05:45:38.029Z,84.95
2023-05-19T05:46:37.965Z,83.92
2023-05-19T05:47:37.974Z,83.61
2023-05-19T05:48:37.933Z,82.69
2023-05-19T05:49:37.917Z,83.06
2023-05-19T05:50:38.054Z,83.37
2023-05-19T05:51:37.954Z,82.86
2023-05-19T05:52:37.922Z,82.65
2023-05-19T05:53:37.902Z,83.06
2023-05-19T05:54:37.905Z,83.03
2023-05-19T05:55:37.906Z,83.95
2023-05-19T05:56:37.916Z,83.95
2023-05-19T05:57:37.893Z,83.03
2023-05-19T05:58:37.896Z,82.82
2023-05-19T05:59:37.901Z,82.78
2023-05-19T06:00:37.876Z,83.39
2023-05-19T06:01:37.887Z,82.68
2023-05-19T06:02:38.000Z,82.37
2023-05-19T06:03:37.931Z,82.89
2023-05-19T06:04:37.875Z,82.89
2023-05-19T06:05:37.910Z,82.98
2023-05-19T06:06:37.828Z,82.13
2023-05-19T06:07:37.816Z,81.82
2023-05-19T06:08:38.263Z,81.82
2023-05-19T06:09:37.908Z,81.82
2023-05-19T06:10:37.910Z,82.03
2023-05-19T06:11:38.221Z,81.62
2023-05-19T06:12:39.750Z,81.48
2023-05-19T06:13:37.772Z,79.94
2023-05-19T06:14:38.134Z,79.23
2023-05-19T06:15:37.810Z,78.72
2023-05-19T06:16:37.882Z,78.99
2023-05-19T06:17:37.788Z,79.70
2023-05-19T06:18:37.870Z,79.25
2023-05-19T06:19:37.742Z,78.95
2023-05-19T06:20:37.754Z,79.05
2023-05-19T06:21:37.729Z,78.54
2023-05-19T06:22:37.719Z,78.54
2023-05-19T06:23:37.745Z,78.03
2023-05-19T06:24:39.449Z,76.90
2023-05-19T06:25:37.704Z,77.52
2023-05-19T06:26:37.702Z,77.31
2023-05-19T06:27:37.687Z,77.38
2023-05-19T06:28:37.704Z,77.08
2023-05-19T06:29:37.680Z,77.34
2023-05-19T06:30:39.621Z,77.34
2023-05-19T06:31:37.688Z,77.34
2023-05-19T06:32:37.734Z,77.31
2023-05-19T06:33:37.655Z,76.70
2023-05-19T06:34:37.650Z,77.21
2023-05-19T06:35:37.643Z,78.23
2023-05-19T06:36:37.624Z,77.11
2023-05-19T06:37:37.698Z,77.00
2023-05-19T06:38:37.738Z,76.66
2023-05-19T06:39:37.681Z,77.07
2023-05-19T06:40:37.718Z,76.93
2023-05-19T06:41:37.753Z,76.93
2023-05-19T06:42:37.590Z,77.34
2023-05-19T06:43:37.575Z,76.12
2023-05-19T06:44:37.614Z,76.42
2023-05-19T06:45:37.567Z,78.05
2023-05-19T06:46:37.619Z,78.66
2023-05-19T06:47:37.630Z,77.95
2023-05-19T06:48:37.535Z,77.85
2023-05-19T06:49:37.747Z,76.12
2023-05-19T06:50:37.537Z,76.28
2023-05-19T06:51:37.536Z,75.78
2023-05-19T06:52:37.512Z,75.16
2023-05-19T06:53:39.467Z,76.86
2023-05-19T06:54:37.499Z,75.54
2023-05-19T06:55:47.210Z,75.33
2023-05-19T06:56:37.509Z,75.74
2023-05-19T06:57:37.658Z,73.60
2023-05-19T06:58:37.478Z,74.28
2023-05-19T06:59:37.482Z,73.97
2023-05-19T07:00:37.544Z,74.18
2023-05-19T07:01:37.457Z,73.57
2023-05-19T07:02:37.519Z,73.67
2023-05-19T07:03:37.494Z,73.36
2023-05-19T07:04:37.442Z,73.97
2023-05-19T07:05:37.568Z,73.94
2023-05-19T07:06:37.422Z,73.94
2023-05-19T07:07:37.454Z,73.94
2023-05-19T07:08:37.489Z,74.04
2023-05-19T07:09:37.873Z,72.01
2023-05-19T07:10:37.437Z,72.41
2023-05-19T07:11:37.430Z,71.91
2023-05-19T07:12:37.976Z,72.62
2023-05-19T07:13:37.398Z,72.48
2023-05-19T07:14:37.385Z,72.45
2023-05-19T07:15:37.554Z,71.64
2023-05-19T07:16:37.552Z,72.28
2023-05-19T07:17:37.363Z,72.28
2023-05-19T07:18:37.693Z,71.84
2023-05-19T07:19:37.429Z,72.25
2023-05-19T07:20:37.422Z,72.11
2023-05-19T07:21:37.764Z,72.78
2023-05-19T07:22:37.348Z,72.38
2023-05-19T07:23:37.342Z,72.28
2023-05-19T07:24:37.646Z,72.14
2023-05-19T07:25:37.287Z,72.04
2023-05-19T07:26:37.290Z,71.23
2023-05-19T07:27:37.582Z,70.92
2023-05-19T07:28:38.715Z,69.88
2023-05-19T07:29:37.506Z,69.47
2023-05-19T07:30:37.263Z,68.76
2023-05-19T07:31:37.738Z,68.15
2023-05-19T07:32:37.446Z,67.92
2023-05-19T07:33:37.250Z,68.43
2023-05-19T07:34:37.750Z,68.52
2023-05-19T07:35:37.365Z,68.40
2023-05-19T07:36:38.234Z,68.12
2023-05-19T07:37:37.661Z,69.13
2023-05-19T07:38:37.252Z,67.51
2023-05-19T07:39:37.260Z,68.56
2023-05-19T07:40:37.577Z,68.87
2023-05-19T07:41:37.186Z,69.03
2023-05-19T07:42:37.214Z,68.43
2023-05-19T07:43:37.173Z,68.93
2023-05-19T07:44:37.346Z,68.09
2023-05-19T07:45:37.440Z,67.89
2023-05-19T07:46:37.270Z,67.55
2023-05-19T07:47:37.233Z,68.36
2023-05-19T07:48:37.234Z,68.26
2023-05-19T07:49:37.124Z,67.99
2023-05-19T07:50:37.311Z,69.44
2023-05-19T07:51:37.098Z,70.45
2023-05-19T07:52:37.262Z,70.15
2023-05-19T07:53:37.393Z,68.90
2023-05-19T07:54:37.184Z,67.18
2023-05-19T07:55:37.177Z,67.79
2023-05-19T07:56:37.521Z,67.18
2023-05-19T07:57:37.098Z,67.55
2023-05-19T07:58:37.107Z,67.96
2023-05-19T07:59:37.261Z,68.40
2023-05-19T08:00:37.066Z,67.38
2023-05-19T08:01:37.072Z,67.89
2023-05-19T08:02:37.090Z,67.55
2023-05-19T08:03:37.815Z,67.14
2023-05-19T08:04:37.302Z,67.35
2023-05-19T08:05:37.287Z,68.53
2023-05-19T08:06:37.578Z,67.62
2023-05-19T08:07:37.176Z,67.01
2023-05-19T08:08:37.186Z,66.20
2023-05-19T08:09:36.979Z,66.71
2023-05-19T08:10:37.042Z,65.06
2023-05-19T08:11:37.007Z,64.73
2023-05-19T08:12:37.109Z,65.50
2023-05-19T08:13:37.030Z,63.68
2023-05-19T08:14:36.954Z,63.25
2023-05-19T08:15:37.406Z,63.28
2023-05-19T08:16:36.954Z,62.57
2023-05-19T08:17:36.982Z,62.27
2023-05-19T08:18:37.268Z,62.47
2023-05-19T08:19:37.580Z,63.08
2023-05-19T08:20:37.181Z,62.34
2023-05-19T08:21:37.199Z,62.04
2023-05-19T08:22:37.267Z,62.34
2023-05-19T08:23:37.102Z,62.31
2023-05-19T08:24:36.902Z,61.91
2023-05-19T08:25:37.374Z,62.71
2023-05-19T08:26:37.920Z,62.11
2023-05-19T08:27:37.020Z,62.48
2023-05-19T08:28:37.307Z,62.99
2023-05-19T08:29:36.942Z,62.79
2023-05-19T08:30:36.949Z,61.68
2023-05-19T08:31:36.850Z,62.68
2023-05-19T08:32:36.889Z,61.24
2023-05-19T08:33:36.862Z,60.53
2023-05-19T08:34:37.101Z,60.84
2023-05-19T08:35:36.783Z,61.04
2023-05-19T08:36:36.790Z,60.74
2023-05-19T08:37:36.773Z,60.57
2023-05-19T08:38:36.797Z,61.07
2023-05-19T08:39:36.869Z,60.53
2023-05-19T08:40:36.763Z,59.30
2023-05-19T08:41:36.742Z,58.56
2023-05-19T08:42:36.941Z,58.56
2023-05-19T08:43:36.759Z,58.36
2023-05-19T08:44:37.181Z,58.49
2023-05-19T08:45:36.724Z,57.89
2023-05-19T08:46:36.759Z,56.77
2023-05-19T08:47:37.200Z,58.06
2023-05-19T08:48:37.420Z,57.73
2023-05-19T08:49:36.700Z,58.06
2023-05-19T08:50:36.914Z,57.68
2023-05-19T08:51:36.678Z,58.29
2023-05-19T08:52:36.710Z,58.52
2023-05-19T08:53:37.032Z,59.70
2023-05-19T08:54:38.620Z,60.31
2023-05-19T08:55:36.654Z,60.41
2023-05-19T08:56:36.656Z,60.61
2023-05-19T08:57:36.927Z,59.00
2023-05-19T08:58:36.628Z,59.09
2023-05-19T08:59:36.631Z,59.40
2023-05-19T09:00:36.891Z,59.80
2023-05-19T09:02:36.670Z,59.47
2023-05-19T09:03:36.711Z,59.77
2023-05-19T09:04:36.793Z,59.95
2023-05-19T09:05:36.819Z,59.11
2023-05-19T09:06:36.582Z,56.09
2023-05-19T09:07:36.567Z,55.99
2023-05-19T09:08:36.574Z,57.30
2023-05-19T09:09:36.575Z,57.30
2023-05-19T09:10:36.660Z,55.79
2023-05-19T09:11:36.737Z,57.30
2023-05-19T09:12:36.530Z,57.88
2023-05-19T09:13:36.544Z,58.28
2023-05-19T09:14:36.631Z,56.95
2023-05-19T09:15:36.992Z,55.66
2023-05-19T09:16:36.715Z,56.54
2023-05-19T09:17:36.717Z,56.27
2023-05-19T09:18:36.508Z,56.49
2023-05-19T09:19:36.702Z,55.49
2023-05-19T09:20:36.621Z,53.75
2023-05-19T09:21:36.459Z,52.97
2023-05-19T09:22:36.731Z,53.55
2023-05-19T09:23:36.493Z,54.35
2023-05-19T09:24:36.554Z,51.81
2023-05-19T09:25:36.691Z,51.89
2023-05-19T09:26:36.461Z,53.88
2023-05-19T09:27:36.440Z,52.26
2023-05-19T09:28:36.882Z,50.89
2023-05-19T09:29:36.493Z,51.59
2023-05-19T09:30:36.408Z,52.80
2023-05-19T09:31:36.542Z,52.26
2023-05-19T09:32:36.790Z,52.06
2023-05-19T09:33:36.639Z,52.09
2023-05-19T09:34:36.410Z,52.29
2023-05-19T09:35:36.399Z,53.09
2023-05-19T09:36:36.458Z,52.69
2023-05-19T09:37:36.384Z,53.32
2023-05-19T09:38:36.362Z,53.02
2023-05-19T09:39:36.461Z,53.02
2023-05-19T09:40:36.350Z,52.22
2023-05-19T09:41:36.776Z,53.80
2023-05-19T09:42:36.378Z,52.69
2023-05-19T09:43:36.502Z,53.09
2023-05-19T09:44:36.333Z,53.37
2023-05-19T09:45:36.297Z,51.66
2023-05-19T09:46:36.392Z,51.56
2023-05-19T09:47:38.338Z,51.66
2023-05-19T09:48:36.955Z,51.64
2023-05-19T09:49:36.293Z,51.64
2023-05-19T09:50:36.283Z,50.91
2023-05-19T09:51:36.265Z,51.49
2023-05-19T09:52:36.265Z,48.86
2023-05-19T09:53:36.312Z,49.96
2023-05-19T09:54:36.240Z,50.76
2023-05-19T09:55:36.238Z,48.66
2023-05-19T09:56:36.215Z,49.46
2023-05-19T09:57:36.235Z,48.46
2023-05-19T09:58:36.236Z,50.56
2023-05-19T09:59:36.215Z,49.23
2023-05-19T10:00:36.623Z,49.38
2023-05-19T10:01:36.243Z,48.38
2023-05-19T10:02:38.221Z,49.88
2023-05-19T10:03:36.392Z,49.08
2023-05-19T10:04:36.188Z,49.36
2023-05-19T10:05:36.329Z,47.65
2023-05-19T10:06:36.162Z,48.23
2023-05-19T10:07:38.125Z,47.03
2023-05-19T10:08:36.263Z,47.73
2023-05-19T10:09:36.156Z,48.03
2023-05-19T10:10:36.134Z,47.00
2023-05-19T10:11:36.145Z,45.78
2023-05-19T10:12:36.133Z,45.68
2023-05-19T10:13:36.103Z,47.19
2023-05-19T10:14:36.126Z,47.28
2023-05-19T10:15:40.873Z,46.88
2023-05-19T10:16:36.171Z,47.49
2023-05-19T10:17:36.100Z,46.62
2023-05-19T10:18:37.513Z,47.63
2023-05-19T10:19:36.149Z,45.92
2023-05-19T10:20:36.061Z,45.90
2023-05-19T10:21:36.165Z,47.13
2023-05-19T10:22:36.037Z,45.83
2023-05-19T10:23:36.045Z,47.43
2023-05-19T10:24:36.070Z,47.11
2023-05-19T10:25:36.037Z,44.28
2023-05-19T10:26:36.103Z,45.20
2023-05-19T10:27:36.046Z,45.70
2023-05-19T10:28:36.109Z,45.72
2023-05-19T10:29:36.123Z,46.45
2023-05-19T10:30:36.127Z,46.45
2023-05-19T10:31:36.069Z,46.15
2023-05-19T10:32:36.021Z,46.42
2023-05-19T10:33:35.975Z,43.90
2023-05-19T10:34:35.952Z,45.98
2023-05-19T10:35:36.385Z,45.08
2023-05-19T10:36:35.962Z,44.66
2023-05-19T10:37:35.942Z,44.84
2023-05-19T10:38:35.949Z,44.26
2023-05-19T10:39:36.097Z,44.08
2023-05-19T10:40:35.962Z,45.36
2023-05-19T10:41:35.930Z,43.16
2023-05-19T10:42:35.898Z,43.63
2023-05-19T10:43:35.910Z,44.93
2023-05-19T10:44:35.919Z,44.21
2023-05-19T10:45:36.105Z,42.91
2023-05-19T10:46:35.905Z,42.82
2023-05-19T10:47:35.919Z,42.74
2023-05-19T10:48:37.316Z,42.93
2023-05-19T10:49:35.886Z,41.82
2023-05-19T10:50:35.856Z,42.19
2023-05-19T10:51:37.806Z,42.29
2023-05-19T10:52:35.826Z,42.18
2023-05-19T10:53:35.868Z,42.18
2023-05-19T10:54:35.836Z,42.65
2023-05-19T10:55:35.827Z,42.76
2023-05-19T10:56:35.819Z,43.55
2023-05-19T10:57:35.899Z,42.24
2023-05-19T10:58:36.113Z,42.95
2023-05-19T10:59:35.815Z,41.53
2023-05-19T11:00:35.781Z,42.15
2023-05-19T11:01:35.840Z,44.07
2023-05-19T11:02:35.795Z,44.57
2023-05-19T11:03:35.801Z,42.97
2023-05-19T11:04:35.813Z,42.65
2023-05-19T11:05:35.924Z,43.21
2023-05-19T11:06:35.747Z,42.79
2023-05-19T11:07:35.755Z,42.77
2023-05-19T11:08:35.828Z,42.02
2023-05-19T11:09:40.261Z,40.92
2023-05-19T11:10:35.998Z,42.40
2023-05-19T11:11:35.714Z,40.72
2023-05-19T11:12:35.712Z,40.59
2023-05-19T11:13:36.748Z,40.98
2023-05-19T11:14:35.687Z,41.17
2023-05-19T11:15:35.737Z,42.05
2023-05-19T11:16:35.752Z,40.46
2023-05-19T11:17:35.749Z,38.67
2023-05-19T11:18:35.801Z,38.63
2023-05-19T11:19:35.818Z,39.70
2023-05-19T11:20:35.728Z,39.50
2023-05-19T11:21:35.711Z,40.08
2023-05-19T11:22:35.634Z,40.34
2023-05-19T11:23:35.980Z,39.84
2023-05-19T11:24:35.742Z,38.43
2023-05-19T11:25:35.734Z,39.23
2023-05-19T11:26:36.077Z,40.58
2023-05-19T11:27:35.683Z,40.66
2023-05-19T11:28:35.596Z,40.22
2023-05-19T11:29:35.635Z,39.74
2023-05-19T11:30:35.598Z,39.76
2023-05-19T11:31:35.652Z,40.88
2023-05-19T11:32:35.848Z,38.56
2023-05-19T11:33:35.853Z,38.90
2023-05-19T11:34:35.818Z,39.78
2023-05-19T11:35:36.601Z,40.10
2023-05-19T11:36:35.720Z,38.96
2023-05-19T11:37:35.760Z,38.93
2023-05-19T11:38:35.556Z,39.12
2023-05-19T11:39:36.061Z,39.74
2023-05-19T11:40:35.673Z,40.95
2023-05-19T11:41:35.528Z,39.26
2023-05-19T11:42:35.774Z,39.94
2023-05-19T11:43:35.579Z,38.93
2023-05-19T11:44:35.576Z,38.13
2023-05-19T11:45:35.997Z,37.93
2023-05-19T11:46:35.577Z,39.32
2023-05-19T11:47:46.482Z,38.81
2023-05-19T11:48:35.850Z,38.29
2023-05-19T11:49:36.063Z,41.52
2023-05-19T11:50:35.462Z,40.40
2023-05-19T11:51:35.458Z,39.66
2023-05-19T11:52:35.782Z,38.27
2023-05-19T11:53:35.664Z,39.74
2023-05-19T11:54:35.664Z,38.69
2023-05-19T11:55:35.972Z,38.79
2023-05-19T11:56:35.527Z,37.48
2023-05-19T11:57:35.435Z,36.77
2023-05-19T11:58:35.901Z,39.07
2023-05-19T11:59:36.252Z,36.21
2023-05-19T12:00:35.419Z,36.58
2023-05-19T12:01:35.539Z,35.38
2023-05-19T12:02:35.509Z,36.57
2023-05-19T12:03:35.527Z,37.66
2023-05-19T12:04:35.596Z,38.35
2023-05-19T12:05:39.122Z,37.36
2023-05-19T12:06:35.413Z,39.21
2023-05-19T12:07:37.337Z,38.69
2023-05-19T12:08:36.006Z,38.67
2023-05-19T12:09:35.575Z,38.37
2023-05-19T12:10:35.369Z,39.09
2023-05-19T12:11:35.734Z,40.10
2023-05-19T12:12:35.381Z,40.26
2023-05-19T12:13:35.346Z,40.81
2023-05-19T12:14:35.829Z,40.45
2023-05-19T12:15:35.650Z,42.29
2023-05-19T12:16:35.477Z,42.52
2023-05-19T12:17:35.375Z,42.97
2023-05-19T12:18:35.345Z,41.52
2023-05-19T12:19:35.290Z,40.59
2023-05-19T12:20:36.220Z,39.46
2023-05-19T12:21:35.293Z,41.25
2023-05-19T12:22:35.320Z,41.24
2023-05-19T12:23:35.661Z,39.72
2023-05-19T12:24:35.889Z,39.78
2023-05-19T12:27:01.458Z,40.06
2023-05-19T12:28:01.978Z,38.16
2023-05-19T12:29:01.183Z,37.86
2023-05-19T12:30:01.262Z,37.96
2023-05-19T12:31:01.186Z,38.83
2023-05-19T12:32:01.249Z,36.35
2023-05-19T12:33:01.172Z,36.47
2023-05-19T12:34:01.333Z,37.81
2023-05-19T12:35:01.260Z,37.92
2023-05-19T12:36:01.259Z,38.20
2023-05-19T12:37:01.582Z,38.51
2023-05-19T12:38:01.178Z,40.10
2023-05-19T12:39:01.193Z,39.32
2023-05-19T12:41:27.097Z,40.18
2023-05-19T12:42:27.078Z,38.68
2023-05-19T12:43:27.465Z,39.58
2023-05-19T12:44:27.064Z,39.36
2023-05-19T12:45:27.057Z,39.34
2023-05-19T12:46:27.089Z,39.12
2023-05-19T12:47:27.064Z,40.02
2023-05-19T12:48:27.056Z,38.81
2023-05-19T12:49:27.043Z,39.74
2023-05-19T12:50:27.070Z,40.48
2023-05-19T12:51:27.109Z,39.78
2023-05-19T12:52:27.138Z,39.78
2023-05-19T12:53:27.398Z,39.66
2023-05-19T12:54:27.147Z,41.25
2023-05-19T12:55:27.098Z,40.88
2023-05-19T12:56:27.183Z,42.81
2023-05-19T12:57:27.035Z,42.15